Time;durP1;ratioP1;P1;durP2;ratioP2;P2;SDS_P1;SDS_P2;PMS_P1;PMS_P2;Temp;Humidity;BMP_temperature;BMP_pressure;BME280_temperature;BME280_humidity;BME280_pressure;Samples;Min_cycle;Max_cycle;Signal;HPM_P1;HPM_P2
2020/12/09 00:01:18;;;;;;;43.03;25.87;;;5.80;99.90;;;;;;5111797;28;20547;-91
2020/12/09 00:03:45;;;;;;;41.47;25.50;;;5.80;99.90;;;;;;5123040;28;20454;-92
2020/12/09 00:06:11;;;;;;;45.20;25.87;;;5.90;99.90;;;;;;5121160;28;20814;-92
2020/12/09 00:08:39;;;;;;;42.53;24.73;;;5.90;99.90;;;;;;5121827;28;20511;-91
2020/12/09 00:11:07;;;;;;;40.70;25.50;;;5.90;99.90;;;;;;5120494;28;20455;-92
2020/12/09 00:13:33;;;;;;;38.07;23.20;;;5.80;99.90;;;;;;5121783;28;20490;-91
2020/12/09 00:16:00;;;;;;;38.70;23.70;;;5.90;99.90;;;;;;5121159;28;20455;-92
2020/12/09 00:18:26;;;;;;;40.73;23.57;;;5.90;99.90;;;;;;5120644;28;20496;-91
2020/12/09 00:20:53;;;;;;;40.10;23.27;;;5.80;99.90;;;;;;5121261;28;20463;-92
2020/12/09 00:23:19;;;;;;;38.50;23.47;;;5.90;99.90;;;;;;5124015;28;20456;-91
2020/12/09 00:25:46;;;;;;;36.30;21.83;;;5.90;99.90;;;;;;5124532;28;20443;-91
2020/12/09 00:28:13;;;;;;;40.30;24.63;;;5.90;99.90;;;;;;5124271;28;20455;-92
2020/12/09 00:30:39;;;;;;;39.33;23.30;;;5.90;99.90;;;;;;5129868;28;20431;-91
2020/12/09 00:33:06;;;;;;;37.93;22.80;;;6.00;99.90;;;;;;5138802;28;20479;-92
2020/12/09 00:35:32;;;;;;;39.10;22.93;;;6.00;99.90;;;;;;5133644;28;20502;-92
2020/12/09 00:37:58;;;;;;;38.83;22.90;;;6.00;99.90;;;;;;5127646;28;20559;-91
2020/12/09 00:40:25;;;;;;;40.27;24.03;;;5.90;99.90;;;;;;5119566;28;20459;-91
2020/12/09 00:42:53;;;;;;;40.83;24.60;;;6.00;99.90;;;;;;5118222;28;20452;-91
2020/12/09 00:45:19;;;;;;;43.70;25.03;;;6.00;99.90;;;;;;5119051;28;20453;-91
2020/12/09 00:47:45;;;;;;;43.43;26.73;;;6.00;99.90;;;;;;5119209;28;20463;-91
2020/12/09 00:50:30;;;;;;;42.97;24.57;;;6.00;99.90;;;;;;5118609;28;20787;-91
2020/12/09 00:52:56;;;;;;;44.70;23.80;;;5.90;99.90;;;;;;5118193;28;20483;-92
2020/12/09 00:55:23;;;;;;;38.00;23.13;;;5.80;99.90;;;;;;5118801;28;20467;-91
2020/12/09 00:57:49;;;;;;;43.37;23.10;;;5.80;99.90;;;;;;5118267;28;20514;-92
2020/12/09 01:00:20;;;;;;;40.53;23.10;;;5.80;99.90;;;;;;5118793;28;20485;-91
2020/12/09 01:02:46;;;;;;;36.73;22.00;;;5.80;99.90;;;;;;5119477;28;20448;-91
2020/12/09 01:05:13;;;;;;;46.00;25.00;;;5.80;99.90;;;;;;5119759;28;20460;-92
2020/12/09 01:07:39;;;;;;;38.93;24.57;;;5.80;99.90;;;;;;5131033;28;20451;-91
2020/12/09 01:10:08;;;;;;;40.37;24.57;;;5.70;99.90;;;;;;5130751;28;20511;-92
2020/12/09 01:12:35;;;;;;;45.90;25.47;;;5.80;99.90;;;;;;5131677;28;20458;-91
2020/12/09 01:15:01;;;;;;;39.93;23.87;;;5.80;99.90;;;;;;5118799;28;20459;-91
2020/12/09 01:17:29;;;;;;;45.13;25.50;;;5.70;99.90;;;;;;5120055;28;20501;-92
2020/12/09 01:19:55;;;;;;;45.50;26.07;;;5.60;99.90;;;;;;5119474;28;20458;-92
2020/12/09 01:22:22;;;;;;;46.83;26.57;;;5.50;99.90;;;;;;5112920;28;20460;-91
2020/12/09 01:24:48;;;;;;;40.77;23.83;;;5.50;99.90;;;;;;5120876;28;20452;-92
2020/12/09 01:27:14;;;;;;;40.53;24.67;;;5.60;99.90;;;;;;5124610;28;20467;-92
2020/12/09 01:29:41;;;;;;;42.40;23.50;;;5.50;99.90;;;;;;5123579;28;20459;-91
2020/12/09 01:32:07;;;;;;;42.43;24.13;;;5.50;99.90;;;;;;5122292;28;20444;-92
2020/12/09 01:34:34;;;;;;;39.80;22.77;;;5.50;99.90;;;;;;5123495;28;20463;-91
2020/12/09 01:37:01;;;;;;;40.73;22.67;;;5.40;99.90;;;;;;5122088;28;20443;-91
2020/12/09 01:39:27;;;;;;;39.40;22.83;;;5.40;99.90;;;;;;5122378;28;20463;-92
2020/12/09 01:41:54;;;;;;;43.13;23.30;;;5.40;99.90;;;;;;5122447;28;20452;-92
2020/12/09 01:44:20;;;;;;;38.47;22.33;;;5.40;99.90;;;;;;5125689;28;20803;-91
2020/12/09 01:46:47;;;;;;;41.50;23.70;;;5.40;99.90;;;;;;5138598;28;20474;-92
2020/12/09 01:49:13;;;;;;;44.47;25.53;;;5.40;99.90;;;;;;5139170;28;20452;-92
2020/12/09 01:51:42;;;;;;;44.37;23.73;;;5.40;99.90;;;;;;5138824;28;20458;-92
2020/12/09 01:54:08;;;;;;;42.40;23.53;;;5.50;99.90;;;;;;5136385;22;20476;-92
2020/12/09 01:56:35;;;;;;;43.10;24.43;;;5.50;99.90;;;;;;5117678;28;20447;-92
2020/12/09 01:59:01;;;;;;;44.57;24.43;;;5.50;99.90;;;;;;5125082;28;20482;-91
2020/12/09 02:01:29;;;;;;;41.93;24.20;;;5.50;99.90;;;;;;5137558;28;20455;-92
2020/12/09 02:03:56;;;;;;;42.67;24.17;;;5.40;99.90;;;;;;5128657;28;20466;-91
2020/12/09 02:06:22;;;;;;;43.47;24.73;;;5.40;99.90;;;;;;5123055;28;20442;-92
2020/12/09 02:08:50;;;;;;;46.90;24.17;;;5.30;99.90;;;;;;5116531;28;20460;-92
2020/12/09 02:11:16;;;;;;;46.00;23.87;;;5.30;99.90;;;;;;5114181;28;20471;-92
2020/12/09 02:13:43;;;;;;;42.87;23.17;;;5.30;99.90;;;;;;5103766;28;20464;-92
2020/12/09 02:16:13;;;;;;;41.00;23.20;;;5.30;99.90;;;;;;5118903;28;20547;-92
2020/12/09 02:18:39;;;;;;;41.87;23.93;;;5.30;99.90;;;;;;5118531;28;20479;-91
2020/12/09 02:21:06;;;;;;;38.67;22.47;;;5.40;99.90;;;;;;5116759;28;20480;-95
2020/12/09 02:23:34;;;;;;;44.67;23.40;;;5.40;99.90;;;;;;5111734;28;20453;-93
2020/12/09 02:26:03;;;;;;;40.83;22.20;;;5.30;99.90;;;;;;5111802;28;20449;-91
2020/12/09 02:28:29;;;;;;;44.60;24.30;;;5.30;99.90;;;;;;5110695;28;20819;-92
2020/12/09 02:30:56;;;;;;;40.37;22.10;;;5.20;99.90;;;;;;5113176;28;20472;-92
2020/12/09 02:33:22;;;;;;;41.27;22.53;;;5.10;99.90;;;;;;5108548;28;20466;-92
2020/12/09 02:35:48;;;;;;;36.83;21.03;;;5.10;99.90;;;;;;5107443;28;20474;-91
2020/12/09 02:38:15;;;;;;;41.83;22.70;;;5.10;99.90;;;;;;5132593;28;20476;-92
2020/12/09 02:40:42;;;;;;;38.17;21.43;;;5.10;99.90;;;;;;5127200;28;20449;-91
2020/12/09 02:43:08;;;;;;;37.43;19.97;;;5.10;99.90;;;;;;5113927;28;20483;-91
2020/12/09 02:45:35;;;;;;;38.60;20.50;;;5.20;99.90;;;;;;5112341;28;20445;-92
2020/12/09 02:48:01;;;;;;;35.90;20.47;;;5.10;99.90;;;;;;5115954;28;20457;-91
2020/12/09 02:50:27;;;;;;;36.53;20.50;;;5.10;99.90;;;;;;5113524;28;20452;-91
2020/12/09 02:52:53;;;;;;;36.50;20.87;;;5.20;99.90;;;;;;5109464;28;20481;-92
2020/12/09 02:55:20;;;;;;;37.43;21.00;;;5.20;99.90;;;;;;5112731;28;20452;-91
2020/12/09 02:57:48;;;;;;;37.17;20.77;;;5.10;99.90;;;;;;5113411;28;20483;-92
2020/12/09 03:00:14;;;;;;;37.87;20.40;;;5.10;99.90;;;;;;5113563;28;20452;-93
2020/12/09 03:02:42;;;;;;;38.93;19.10;;;5.10;99.90;;;;;;5114707;28;20457;-92
2020/12/09 03:05:08;;;;;;;36.97;20.10;;;5.10;99.90;;;;;;5114384;28;20513;-93
2020/12/09 03:07:35;;;;;;;36.60;20.87;;;5.10;99.90;;;;;;5114648;28;20461;-91
2020/12/09 03:10:02;;;;;;;38.03;20.40;;;5.20;99.90;;;;;;5124616;28;20456;-92
2020/12/09 03:12:28;;;;;;;42.67;21.93;;;5.20;99.90;;;;;;5134669;28;20427;-91
2020/12/09 03:14:55;;;;;;;42.83;22.17;;;5.10;99.90;;;;;;5126022;28;20449;-91
2020/12/09 03:17:22;;;;;;;41.17;22.30;;;5.10;99.90;;;;;;5114872;28;20453;-92
2020/12/09 03:19:48;;;;;;;42.40;23.30;;;5.20;99.90;;;;;;5127798;28;20452;-92
2020/12/09 03:22:14;;;;;;;40.63;22.00;;;5.30;99.90;;;;;;5122661;28;20455;-92
2020/12/09 03:24:40;;;;;;;42.37;22.73;;;5.40;99.90;;;;;;5133661;28;20444;-91
2020/12/09 03:27:07;;;;;;;40.00;22.30;;;5.40;99.90;;;;;;5125045;28;20441;-90
2020/12/09 03:29:33;;;;;;;41.30;23.23;;;5.30;99.90;;;;;;5117754;28;20460;-92
2020/12/09 03:32:00;;;;;;;44.37;22.70;;;5.30;99.90;;;;;;5120438;28;20456;-91
2020/12/09 03:34:27;;;;;;;43.13;22.83;;;5.20;99.90;;;;;;5119096;28;20456;-92
2020/12/09 03:36:53;;;;;;;40.07;21.87;;;5.20;99.90;;;;;;5128706;28;20939;-92
2020/12/09 03:39:19;;;;;;;44.73;22.73;;;5.20;99.90;;;;;;5116551;28;20739;-92
2020/12/09 03:41:45;;;;;;;41.20;22.07;;;5.20;99.90;;;;;;5135218;28;20466;-92
2020/12/09 03:44:12;;;;;;;39.87;22.50;;;5.20;99.90;;;;;;5138496;28;20444;-91
2020/12/09 03:46:38;;;;;;;43.03;22.27;;;5.30;99.90;;;;;;5138992;28;20444;-91
2020/12/09 03:49:05;;;;;;;45.00;22.67;;;5.40;99.90;;;;;;5134201;28;20479;-92
2020/12/09 03:51:31;;;;;;;37.83;22.20;;;5.50;99.90;;;;;;5130960;28;20456;-91
2020/12/09 03:53:58;;;;;;;42.90;23.17;;;5.40;99.90;;;;;;5134143;28;20476;-91
2020/12/09 03:56:24;;;;;;;38.83;22.30;;;5.30;99.90;;;;;;5118219;28;20494;-91
2020/12/09 03:58:50;;;;;;;46.43;23.53;;;5.30;99.90;;;;;;5105236;28;20488;-91
2020/12/09 04:01:17;;;;;;;42.73;21.90;;;5.40;99.90;;;;;;5122831;28;20466;-91
2020/12/09 04:03:44;;;;;;;43.23;23.10;;;5.40;99.90;;;;;;5134571;28;20456;-91
2020/12/09 04:06:11;;;;;;;39.07;22.30;;;5.30;99.90;;;;;;5116169;28;20494;-92
2020/12/09 04:08:38;;;;;;;44.00;21.73;;;5.40;99.90;;;;;;5111870;28;20626;-91
2020/12/09 04:11:04;;;;;;;41.73;22.80;;;5.30;99.90;;;;;;5104655;28;20468;-93
2020/12/09 04:13:31;;;;;;;42.10;22.57;;;5.30;99.90;;;;;;5105501;28;20444;-92
2020/12/09 04:15:57;;;;;;;44.17;21.97;;;5.30;99.90;;;;;;5116874;28;20448;-91
2020/12/09 04:18:23;;;;;;;39.23;21.83;;;5.30;99.90;;;;;;5102766;28;20484;-92
2020/12/09 04:20:50;;;;;;;45.37;23.60;;;5.30;99.90;;;;;;5114607;28;20457;-92
2020/12/09 04:23:19;;;;;;;45.37;23.13;;;5.30;99.90;;;;;;5105831;28;20457;-92
2020/12/09 04:25:45;;;;;;;42.00;22.03;;;5.30;99.90;;;;;;5100946;28;20457;-93
2020/12/09 04:28:11;;;;;;;46.20;22.53;;;5.30;99.90;;;;;;5107375;28;21283;-92
2020/12/09 04:30:38;;;;;;;46.13;23.00;;;5.20;99.90;;;;;;5128195;28;20455;-92
2020/12/09 04:33:04;;;;;;;42.80;22.13;;;5.20;99.90;;;;;;5125673;28;20459;-92
2020/12/09 04:35:30;;;;;;;39.50;20.40;;;5.20;99.90;;;;;;5115492;28;20449;-92
2020/12/09 04:37:57;;;;;;;39.93;22.97;;;5.30;99.90;;;;;;5117797;28;20838;-92
2020/12/09 04:40:26;;;;;;;40.60;22.03;;;5.30;99.90;;;;;;5112270;28;20479;-92
2020/12/09 04:42:58;;;;;;;42.60;22.03;;;5.30;99.90;;;;;;5119310;28;20452;-92
2020/12/09 04:45:24;;;;;;;49.60;22.80;;;5.30;99.90;;;;;;5117302;28;20493;-91
2020/12/09 04:48:04;;;;;;;40.10;21.20;;;5.30;99.90;;;;;;5118027;28;20470;-93
2020/12/09 04:50:36;;;;;;;44.63;22.10;;;5.30;99.90;;;;;;5120000;28;20459;-91
2020/12/09 04:53:07;;;;;;;38.93;21.50;;;5.30;99.90;;;;;;5112536;28;20485;-92
2020/12/09 04:55:40;;;;;;;41.20;21.57;;;5.40;99.90;;;;;;5100026;28;20514;-93
2020/12/09 04:58:16;;;;;;;39.03;20.90;;;5.40;99.90;;;;;;5106833;28;20520;-92
2020/12/09 05:00:45;;;;;;;42.87;21.80;;;5.40;99.90;;;;;;5094513;28;20483;-92
2020/12/09 05:03:24;;;;;;;41.20;21.33;;;5.50;99.90;;;;;;5127565;28;20456;-92
2020/12/09 05:05:51;;;;;;;41.37;21.83;;;5.60;99.90;;;;;;5119508;28;20459;-92
2020/12/09 05:08:22;;;;;;;42.10;21.60;;;5.60;99.90;;;;;;5118522;28;20451;-93
2020/12/09 05:10:51;;;;;;;44.17;22.57;;;5.60;99.90;;;;;;5099920;28;20963;-92
2020/12/09 05:13:23;;;;;;;42.27;22.37;;;5.60;99.90;;;;;;5099081;28;20459;-92
2020/12/09 05:15:53;;;;;;;39.20;22.40;;;5.60;99.90;;;;;;5106398;28;20529;-92
2020/12/09 05:18:37;;;;;;;43.13;22.60;;;5.50;99.90;;;;;;5081402;28;20489;-92
2020/12/09 05:21:12;;;;;;;40.70;22.40;;;5.50;99.90;;;;;;5119788;28;20537;-92
2020/12/09 05:23:45;;;;;;;38.03;20.87;;;5.60;99.90;;;;;;5106874;28;20564;-92
2020/12/09 05:26:24;;;;;;;39.07;21.17;;;5.50;99.90;;;;;;5098805;28;20939;-91
2020/12/09 05:29:05;;;;;;;40.67;21.73;;;5.50;99.90;;;;;;5098201;28;20457;-92
2020/12/09 05:31:32;;;;;;;38.27;22.37;;;5.50;99.90;;;;;;5099651;28;20460;-92
2020/12/09 05:33:58;;;;;;;36.23;20.23;;;5.40;99.90;;;;;;5103795;28;20452;-92
2020/12/09 05:36:26;;;;;;;41.87;22.73;;;5.40;99.90;;;;;;5109502;28;20432;-93
2020/12/09 05:39:04;;;;;;;41.73;22.40;;;5.40;99.90;;;;;;5117472;28;20480;-92
2020/12/09 05:41:33;;;;;;;43.70;23.53;;;5.40;99.90;;;;;;5130935;28;20543;-93
2020/12/09 05:44:01;;;;;;;43.63;22.70;;;5.40;99.90;;;;;;5100321;28;20472;-92
2020/12/09 05:46:27;;;;;;;43.03;22.20;;;5.30;99.90;;;;;;5098473;28;20920;-92
2020/12/09 05:48:54;;;;;;;41.23;22.63;;;5.50;99.90;;;;;;5109396;28;21013;-93
2020/12/09 05:51:20;;;;;;;40.40;21.23;;;5.50;99.90;;;;;;5117360;28;20489;-92
2020/12/09 05:53:47;;;;;;;44.20;23.33;;;5.50;99.90;;;;;;5104016;28;20488;-93
2020/12/09 05:56:14;;;;;;;42.80;22.57;;;5.50;99.90;;;;;;5100519;28;20973;-92
2020/12/09 05:58:43;;;;;;;44.63;23.13;;;5.50;99.90;;;;;;5108857;28;20960;-93
2020/12/09 06:01:11;;;;;;;43.83;23.30;;;5.50;99.90;;;;;;5119509;28;20463;-92
2020/12/09 06:03:39;;;;;;;42.30;23.07;;;5.40;99.90;;;;;;5099871;28;20468;-92
2020/12/09 06:06:11;;;;;;;43.60;22.77;;;5.50;99.90;;;;;;5098823;28;20449;-91
2020/12/09 06:08:38;;;;;;;44.33;23.30;;;5.60;99.90;;;;;;5097433;28;20452;-92
2020/12/09 06:11:05;;;;;;;43.23;23.37;;;5.50;99.90;;;;;;5097358;28;20472;-92
2020/12/09 06:13:32;;;;;;;44.77;23.47;;;5.50;99.90;;;;;;5098173;28;20459;-92
2020/12/09 06:16:01;;;;;;;42.23;23.43;;;5.50;99.90;;;;;;5104113;28;20445;-92
2020/12/09 06:18:30;;;;;;;41.60;22.97;;;5.50;99.90;;;;;;5099073;28;20492;-92
2020/12/09 06:20:57;;;;;;;44.80;24.17;;;5.40;99.90;;;;;;5098679;28;20453;-92
2020/12/09 06:23:26;;;;;;;46.13;24.27;;;5.40;99.90;;;;;;5098409;28;20506;-93
2020/12/09 06:25:52;;;;;;;45.23;23.67;;;5.40;99.90;;;;;;5102748;28;20460;-92
2020/12/09 06:28:21;;;;;;;42.73;24.13;;;5.40;99.90;;;;;;5106923;28;20453;-92
2020/12/09 06:30:48;;;;;;;48.70;24.50;;;5.40;99.90;;;;;;5113851;28;20455;-92
2020/12/09 06:33:32;;;;;;;43.47;23.17;;;5.40;99.90;;;;;;5104305;28;20449;-93
2020/12/09 06:36:22;;;;;;;44.73;24.27;;;5.40;99.90;;;;;;5083756;28;20463;-92
2020/12/09 06:39:17;;;;;;;46.67;24.50;;;5.40;99.90;;;;;;5098716;28;20493;-92
2020/12/09 06:42:07;;;;;;;45.57;23.70;;;5.40;99.90;;;;;;5113622;28;20958;-92
2020/12/09 06:44:46;;;;;;;43.63;23.90;;;5.40;99.90;;;;;;5118879;28;20444;-92
2020/12/09 06:47:13;;;;;;;42.77;24.17;;;5.40;99.90;;;;;;5120649;28;20539;-92
2020/12/09 06:49:42;;;;;;;42.70;22.87;;;5.50;99.90;;;;;;5099753;28;20457;-92
2020/12/09 06:52:36;;;;;;;42.60;23.03;;;5.40;99.90;;;;;;5097855;28;20969;-92
2020/12/09 06:55:06;;;;;;;43.07;23.83;;;5.50;99.90;;;;;;5077790;28;20457;-92
2020/12/09 06:57:38;;;;;;;44.33;23.37;;;5.60;99.90;;;;;;5079100;28;20461;-93
2020/12/09 07:00:21;;;;;;;44.73;24.03;;;5.60;99.90;;;;;;5098558;28;20830;-92
2020/12/09 07:02:52;;;;;;;46.30;25.33;;;5.60;99.90;;;;;;5097848;28;20449;-92
2020/12/09 07:05:30;;;;;;;47.27;24.10;;;5.60;99.90;;;;;;5101029;28;20457;-91
2020/12/09 07:08:06;;;;;;;43.83;23.77;;;5.70;99.90;;;;;;5099230;28;20500;-92
2020/12/09 07:10:33;;;;;;;46.90;23.53;;;5.70;99.90;;;;;;5098673;28;20483;-92
2020/12/09 07:13:06;;;;;;;45.40;24.27;;;5.70;99.90;;;;;;5097542;28;20927;-92
2020/12/09 07:15:33;;;;;;;45.53;22.43;;;5.70;99.90;;;;;;5098977;28;20464;-92
2020/12/09 07:18:09;;;;;;;46.57;24.30;;;5.80;99.90;;;;;;5100345;28;20521;-90
2020/12/09 07:20:36;;;;;;;43.10;23.03;;;5.80;99.90;;;;;;5104225;28;20459;-93
2020/12/09 07:23:04;;;;;;;44.47;23.70;;;5.70;99.90;;;;;;5116822;28;20452;-93
2020/12/09 07:25:31;;;;;;;45.07;23.57;;;5.70;99.90;;;;;;5118643;28;20498;-92
2020/12/09 07:27:57;;;;;;;44.63;23.57;;;5.60;99.90;;;;;;5120037;28;20511;-92
2020/12/09 07:30:25;;;;;;;42.87;22.97;;;5.70;99.90;;;;;;5105586;28;20453;-92
2020/12/09 07:32:53;;;;;;;42.50;21.67;;;5.60;99.90;;;;;;5096092;28;20463;-92
2020/12/09 07:35:20;;;;;;;44.23;25.03;;;5.70;99.90;;;;;;5095866;28;20457;-91
2020/12/09 07:37:51;;;;;;;44.30;22.97;;;5.80;99.90;;;;;;5096592;28;20457;-93
2020/12/09 07:40:22;;;;;;;42.60;22.73;;;5.80;99.90;;;;;;5109689;28;20476;-92
2020/12/09 07:42:59;;;;;;;44.20;23.77;;;5.80;99.90;;;;;;5117127;28;20452;-96
2020/12/09 07:45:34;;;;;;;43.73;24.60;;;5.90;99.90;;;;;;5106909;28;20456;-94
2020/12/09 07:48:02;;;;;;;39.53;22.40;;;5.90;99.90;;;;;;5102013;28;20461;-92
2020/12/09 07:50:29;;;;;;;42.87;23.50;;;5.90;99.90;;;;;;5101471;28;20857;-91
2020/12/09 07:52:56;;;;;;;39.57;24.07;;;5.90;99.90;;;;;;5101564;28;20489;-92
2020/12/09 07:55:23;;;;;;;41.10;22.53;;;6.00;99.90;;;;;;5097126;28;20469;-92
2020/12/09 07:57:50;;;;;;;44.17;23.17;;;6.00;99.90;;;;;;5097698;28;20461;-92
2020/12/09 08:00:19;;;;;;;43.07;23.20;;;6.00;99.90;;;;;;5099310;28;20458;-92
2020/12/09 08:02:46;;;;;;;49.17;24.23;;;6.00;99.90;;;;;;5097949;28;20486;-92
2020/12/09 08:05:18;;;;;;;36.23;22.30;;;6.00;99.90;;;;;;5099376;28;20464;-92
2020/12/09 08:08:15;;;;;;;42.73;22.87;;;6.00;99.90;;;;;;5101153;28;20449;-92
2020/12/09 08:10:45;;;;;;;45.20;23.87;;;5.90;99.90;;;;;;5105798;28;20585;-92
2020/12/09 08:13:13;;;;;;;40.20;22.60;;;5.80;99.90;;;;;;5107382;28;20467;-91
2020/12/09 08:15:41;;;;;;;39.00;22.23;;;5.90;99.90;;;;;;5103277;28;20452;-91
2020/12/09 08:18:09;;;;;;;43.77;23.50;;;5.90;99.90;;;;;;5100498;28;20476;-91
2020/12/09 08:20:53;;;;;;;39.87;22.50;;;5.90;99.90;;;;;;5101477;28;20461;-91
2020/12/09 08:23:22;;;;;;;41.43;22.73;;;5.90;99.90;;;;;;5102609;28;20463;-90
2020/12/09 08:25:51;;;;;;;44.50;23.27;;;5.90;99.90;;;;;;5104549;28;20453;-90
2020/12/09 08:28:24;;;;;;;46.87;23.17;;;5.90;99.90;;;;;;5109333;28;20453;-90
2020/12/09 08:30:51;;;;;;;45.47;24.27;;;5.80;99.90;;;;;;5110033;28;20441;-93
2020/12/09 08:33:20;;;;;;;40.23;22.73;;;5.80;99.90;;;;;;5104329;28;20463;-92
2020/12/09 08:36:02;;;;;;;42.53;22.60;;;5.70;99.90;;;;;;5114135;28;20452;-91
2020/12/09 08:38:34;;;;;;;35.50;21.77;;;5.70;99.90;;;;;;5101796;28;20488;-91
2020/12/09 08:41:05;;;;;;;41.13;22.33;;;5.70;99.90;;;;;;5102119;28;20463;-90
2020/12/09 08:43:34;;;;;;;41.10;21.37;;;5.80;99.90;;;;;;5102699;28;20459;-91
2020/12/09 08:46:02;;;;;;;43.03;23.70;;;5.80;99.90;;;;;;5102458;28;20467;-91
2020/12/09 08:48:28;;;;;;;36.00;19.73;;;5.90;99.90;;;;;;5102823;28;20522;-90
2020/12/09 08:50:55;;;;;;;41.80;22.50;;;6.00;99.90;;;;;;5108276;28;20476;-91
2020/12/09 08:53:21;;;;;;;37.23;21.07;;;6.10;99.90;;;;;;5103144;28;20477;-91
2020/12/09 08:58:33;;;;;;;37.80;20.63;;;6.20;99.90;;;;;;5117792;28;20488;-93
2020/12/09 09:01:00;;;;;;;36.37;21.13;;;6.20;99.90;;;;;;5106176;28;20458;-91
2020/12/09 09:03:27;;;;;;;34.70;20.30;;;6.10;99.90;;;;;;5104092;28;20449;-90
2020/12/09 09:05:57;;;;;;;37.57;21.00;;;6.00;99.90;;;;;;5105515;28;20518;-91
2020/12/09 09:08:24;;;;;;;35.43;21.00;;;6.00;99.90;;;;;;5104288;28;20533;-91
2020/12/09 09:10:51;;;;;;;38.90;21.47;;;6.00;99.90;;;;;;5105676;28;20445;-91
2020/12/09 09:13:19;;;;;;;36.47;20.20;;;6.00;99.90;;;;;;5104032;28;20469;-90
2020/12/09 09:15:47;;;;;;;38.00;22.00;;;6.10;99.90;;;;;;5106729;28;20476;-91
2020/12/09 09:18:14;;;;;;;35.83;19.77;;;6.10;99.90;;;;;;5104050;28;20504;-92
2020/12/09 09:20:40;;;;;;;33.13;19.90;;;6.00;99.90;;;;;;5106268;28;20844;-91
2020/12/09 09:23:07;;;;;;;35.93;19.67;;;6.00;99.90;;;;;;5105981;28;20476;-91
2020/12/09 09:25:35;;;;;;;33.83;19.03;;;6.10;99.90;;;;;;5108360;28;20457;-92
2020/12/09 09:28:03;;;;;;;37.50;20.90;;;6.20;99.90;;;;;;5116005;28;20453;-91
2020/12/09 09:30:30;;;;;;;36.17;20.40;;;6.20;99.90;;;;;;5116791;28;20464;-91
2020/12/09 09:32:57;;;;;;;37.23;21.90;;;6.10;99.90;;;;;;5108136;28;20453;-92
2020/12/09 09:35:24;;;;;;;35.77;19.80;;;6.20;99.90;;;;;;5104564;28;20456;-92
2020/12/09 09:37:50;;;;;;;37.30;20.77;;;6.10;99.90;;;;;;5099384;28;20446;-91
2020/12/09 09:40:17;;;;;;;40.67;22.27;;;6.10;99.90;;;;;;5099536;28;20538;-92
2020/12/09 09:42:43;;;;;;;36.43;20.70;;;6.00;99.90;;;;;;5109991;28;20509;-92
2020/12/09 09:45:14;;;;;;;37.60;21.23;;;6.10;99.90;;;;;;5115364;28;20468;-92
2020/12/09 09:50:23;;;;;;;40.00;20.93;;;6.00;99.90;;;;;;5115274;28;20459;-91
2020/12/09 09:52:50;;;;;;;36.47;20.67;;;6.00;99.90;;;;;;5111883;28;20433;-92
2020/12/09 09:55:18;;;;;;;39.10;20.53;;;6.00;99.90;;;;;;5113632;28;20449;-92
2020/12/09 09:57:45;;;;;;;36.57;19.37;;;5.90;99.90;;;;;;5137058;28;20452;-91
2020/12/09 10:00:12;;;;;;;34.87;20.67;;;5.90;99.90;;;;;;5138366;28;20916;-91
2020/12/09 10:02:38;;;;;;;35.47;19.63;;;6.00;99.90;;;;;;5137362;28;20452;-91
2020/12/09 10:05:41;;;;;;;34.37;19.70;;;6.10;99.90;;;;;;5137854;28;20534;-90
2020/12/09 10:08:07;;;;;;;35.83;19.40;;;6.10;99.90;;;;;;5131566;28;20443;-91
2020/12/09 10:10:34;;;;;;;32.43;19.67;;;6.20;99.90;;;;;;5134790;28;20483;-92
2020/12/09 10:13:00;;;;;;;33.63;18.87;;;6.10;99.90;;;;;;5129896;28;20507;-91
2020/12/09 10:15:26;;;;;;;32.30;17.47;;;6.10;99.90;;;;;;5127153;28;20462;-92
2020/12/09 10:17:53;;;;;;;35.37;19.93;;;6.10;99.90;;;;;;5124196;28;20950;-91
2020/12/09 10:20:19;;;;;;;27.90;16.73;;;6.10;99.90;;;;;;5122698;28;20590;-91
2020/12/09 10:22:47;;;;;;;32.07;18.57;;;6.20;99.90;;;;;;5124262;28;20460;-91
2020/12/09 10:25:14;;;;;;;33.03;18.57;;;6.30;99.90;;;;;;5123449;28;20447;-91
2020/12/09 10:27:40;;;;;;;36.97;19.70;;;6.30;99.90;;;;;;5126751;28;20452;-91
2020/12/09 10:30:07;;;;;;;34.53;19.97;;;6.20;99.90;;;;;;5130429;28;20621;-91
2020/12/09 10:32:33;;;;;;;35.50;19.90;;;6.20;99.90;;;;;;5128544;28;20458;-91
2020/12/09 10:35:00;;;;;;;36.60;20.27;;;6.40;99.90;;;;;;5122888;28;20470;-91
2020/12/09 10:37:26;;;;;;;39.77;20.73;;;6.50;99.90;;;;;;5123741;28;20463;-91
2020/12/09 10:39:55;;;;;;;34.87;20.17;;;6.50;99.90;;;;;;5122080;28;20483;-91
2020/12/09 10:42:22;;;;;;;35.10;20.60;;;6.40;99.90;;;;;;5127181;27;20455;-91
2020/12/09 10:44:49;;;;;;;37.20;20.83;;;6.40;99.90;;;;;;5148402;27;20447;-93
2020/12/09 10:47:17;;;;;;;38.63;21.10;;;6.40;99.90;;;;;;5147426;27;20450;-92
2020/12/09 10:49:48;;;;;;;40.67;21.10;;;6.50;99.90;;;;;;5138875;27;20491;-91
2020/12/09 10:52:15;;;;;;;37.17;20.97;;;6.50;99.90;;;;;;5131357;27;20461;-92
2020/12/09 10:54:44;;;;;;;37.90;21.83;;;6.60;99.90;;;;;;5133974;27;20201;-93
2020/12/09 10:57:13;;;;;;;36.93;22.47;;;6.60;99.90;;;;;;5128844;27;20476;-92
2020/12/09 10:59:40;;;;;;;37.47;21.20;;;6.60;99.90;;;;;;5117036;28;20510;-92
2020/12/09 11:02:07;;;;;;;36.27;20.23;;;6.60;99.90;;;;;;5124771;28;20444;-91
2020/12/09 11:04:36;;;;;;;40.10;22.67;;;6.50;99.90;;;;;;5116695;28;20455;-91
2020/12/09 11:07:06;;;;;;;37.83;21.17;;;6.40;99.90;;;;;;5122671;28;20452;-91
2020/12/09 11:09:40;;;;;;;41.53;20.57;;;6.50;99.90;;;;;;5132992;27;20483;-92
2020/12/09 11:12:06;;;;;;;36.23;20.80;;;6.50;99.90;;;;;;5138226;27;20448;-93
2020/12/09 11:14:34;;;;;;;38.07;22.00;;;6.50;99.90;;;;;;5136813;27;20447;-92
2020/12/09 11:17:02;;;;;;;37.67;21.33;;;6.50;99.90;;;;;;5143941;28;20454;-92
2020/12/09 11:19:29;;;;;;;40.73;21.63;;;6.60;99.90;;;;;;5144096;28;20505;-93
2020/12/09 11:21:55;;;;;;;38.83;21.50;;;6.70;99.90;;;;;;5144237;28;20209;-92
2020/12/09 11:24:22;;;;;;;41.43;21.67;;;6.70;99.90;;;;;;5145342;28;20446;-93
2020/12/09 11:26:48;;;;;;;37.00;21.17;;;6.70;99.90;;;;;;5144529;28;20457;-90
2020/12/09 11:29:15;;;;;;;38.63;21.90;;;6.70;99.90;;;;;;5139902;28;20223;-92
2020/12/09 11:31:43;;;;;;;41.10;22.93;;;6.60;99.90;;;;;;5145187;27;20448;-90
2020/12/09 11:34:12;;;;;;;40.93;22.70;;;6.60;99.90;;;;;;5143718;28;20490;-93
2020/12/09 11:36:40;;;;;;;41.87;23.13;;;6.70;99.90;;;;;;5144893;28;20448;-91
2020/12/09 11:39:09;;;;;;;42.60;22.87;;;6.70;99.90;;;;;;5143283;28;20467;-92
2020/12/09 11:41:35;;;;;;;40.03;21.93;;;6.60;99.90;;;;;;5143361;28;20443;-91
2020/12/09 11:44:03;;;;;;;39.70;21.03;;;6.60;99.90;;;;;;5146058;27;20452;-92
2020/12/09 11:46:30;;;;;;;42.87;22.30;;;6.70;99.90;;;;;;5127618;28;20527;-93
2020/12/09 11:48:58;;;;;;;37.90;21.03;;;6.70;99.90;;;;;;5126369;28;20455;-92
2020/12/09 11:51:25;;;;;;;39.53;22.90;;;6.60;99.90;;;;;;5126579;28;20450;-93
2020/12/09 11:53:52;;;;;;;38.17;21.00;;;6.70;99.90;;;;;;5127561;28;20459;-92
2020/12/09 11:56:22;;;;;;;38.30;21.13;;;6.70;99.90;;;;;;5126431;28;21019;-93
2020/12/09 11:58:49;;;;;;;38.47;22.53;;;6.80;99.90;;;;;;5125010;28;20483;-92
2020/12/09 12:01:16;;;;;;;43.93;22.10;;;6.70;99.90;;;;;;5128464;28;20203;-92
2020/12/09 12:03:43;;;;;;;35.73;20.87;;;6.70;99.90;;;;;;5130673;28;20607;-91
2020/12/09 12:06:21;;;;;;;43.30;22.90;;;6.80;99.90;;;;;;5111660;28;20289;-92
2020/12/09 12:08:50;;;;;;;40.97;23.03;;;6.80;99.90;;;;;;5126083;28;20458;-92
2020/12/09 12:11:19;;;;;;;39.83;22.13;;;6.90;99.90;;;;;;5111038;28;20213;-92
2020/12/09 12:13:45;;;;;;;40.30;22.77;;;6.90;99.90;;;;;;5150510;27;20480;-92
2020/12/09 12:16:13;;;;;;;40.17;23.33;;;6.90;99.90;;;;;;5149022;27;20540;-93
2020/12/09 12:18:40;;;;;;;39.67;22.17;;;6.90;99.90;;;;;;5139858;27;20227;-92
2020/12/09 12:21:06;;;;;;;36.10;20.97;;;6.90;99.90;;;;;;5140021;27;20294;-92
2020/12/09 12:23:34;;;;;;;41.07;21.27;;;6.80;99.90;;;;;;5150129;27;20211;-91
2020/12/09 12:26:00;;;;;;;40.50;22.77;;;6.80;99.90;;;;;;5149226;27;20214;-92
2020/12/09 12:28:28;;;;;;;37.83;22.17;;;6.70;99.90;;;;;;5150752;27;20212;-92
2020/12/09 12:30:55;;;;;;;36.10;20.50;;;6.80;99.90;;;;;;5151856;27;20216;-93
2020/12/09 12:33:22;;;;;;;43.77;23.60;;;6.80;99.90;;;;;;5157222;27;20206;-92
2020/12/09 12:35:48;;;;;;;37.57;21.47;;;6.80;99.90;;;;;;5143362;27;20196;-92
2020/12/09 12:38:15;;;;;;;35.97;21.20;;;6.90;99.90;;;;;;5138100;28;20200;-92
2020/12/09 12:40:42;;;;;;;35.10;21.77;;;6.90;99.90;;;;;;5148678;27;20202;-92
2020/12/09 12:43:10;;;;;;;37.57;21.40;;;7.00;99.90;;;;;;5154264;27;20237;-92
2020/12/09 12:45:37;;;;;;;39.50;21.20;;;7.00;99.90;;;;;;5142080;27;20200;-92
2020/12/09 12:48:03;;;;;;;39.90;22.40;;;7.00;99.90;;;;;;5108031;28;20216;-93